sensor_id;sensor_type;location;lat;lon;timestamp;pressure;altitude;pressure_sealevel;temperature;humidity
8320;BME280;4197;42.130;24.746;2023-07-29T00:01:47;99198.47;;;20.25;47.79
8320;BME280;4197;42.130;24.746;2023-07-29T00:04:17;99198.19;;;20.19;48.03
8320;BME280;4197;42.130;24.746;2023-07-29T00:06:47;99193.25;;;20.11;48.49
8320;BME280;4197;42.130;24.746;2023-07-29T00:09:15;99198.56;;;20.01;49.01
8320;BME280;4197;42.130;24.746;2023-07-29T00:11:47;99191.22;;;19.95;49.35
8320;BME280;4197;42.130;24.746;2023-07-29T00:14:16;99186.28;;;19.86;49.52
8320;BME280;4197;42.130;24.746;2023-07-29T00:16:44;99191.69;;;19.90;49.75
8320;BME280;4197;42.130;24.746;2023-07-29T00:19:12;99187.25;;;19.76;49.95
8320;BME280;4197;42.130;24.746;2023-07-29T00:21:41;99190.56;;;19.67;49.99
8320;BME280;4197;42.130;24.746;2023-07-29T00:24:09;99185.53;;;19.62;50.87
8320;BME280;4197;42.130;24.746;2023-07-29T00:26:37;99189.06;;;19.63;51.14
8320;BME280;4197;42.130;24.746;2023-07-29T00:29:07;99207.00;;;19.71;51.03
8320;BME280;4197;42.130;24.746;2023-07-29T00:31:35;99209.50;;;19.85;51.15
8320;BME280;4197;42.130;24.746;2023-07-29T00:34:03;99201.81;;;19.76;51.36
8320;BME280;4197;42.130;24.746;2023-07-29T00:36:31;99202.00;;;19.66;51.92
8320;BME280;4197;42.130;24.746;2023-07-29T00:39:00;99202.84;;;19.59;52.05
8320;BME280;4197;42.130;24.746;2023-07-29T00:41:29;99202.09;;;19.58;52.40
8320;BME280;4197;42.130;24.746;2023-07-29T00:43:57;99202.34;;;19.68;52.31
8320;BME280;4197;42.130;24.746;2023-07-29T00:46:27;99210.63;;;19.64;53.00
8320;BME280;4197;42.130;24.746;2023-07-29T00:48:56;99204.00;;;19.61;53.28
8320;BME280;4197;42.130;24.746;2023-07-29T00:51:25;99205.09;;;19.68;53.41
8320;BME280;4197;42.130;24.746;2023-07-29T00:53:53;99203.28;;;19.57;53.52
8320;BME280;4197;42.130;24.746;2023-07-29T00:56:22;99196.38;;;19.49;54.37
8320;BME280;4197;42.130;24.746;2023-07-29T00:58:50;99202.41;;;19.41;54.91
8320;BME280;4197;42.130;24.746;2023-07-29T01:01:27;99197.75;;;19.37;54.98
8320;BME280;4197;42.130;24.746;2023-07-29T01:03:56;99184.06;;;19.34;55.08
8320;BME280;4197;42.130;24.746;2023-07-29T01:06:29;99193.97;;;19.28;54.85
8320;BME280;4197;42.130;24.746;2023-07-29T01:09:03;99199.19;;;19.22;55.28
8320;BME280;4197;42.130;24.746;2023-07-29T01:11:44;99197.63;;;19.21;55.67
8320;BME280;4197;42.130;24.746;2023-07-29T01:14:21;99199.19;;;19.22;55.73
8320;BME280;4197;42.130;24.746;2023-07-29T01:16:58;99198.88;;;19.16;55.77
8320;BME280;4197;42.130;24.746;2023-07-29T01:19:42;99193.75;;;19.19;56.00
8320;BME280;4197;42.130;24.746;2023-07-29T01:22:11;99195.00;;;19.14;56.38
8320;BME280;4197;42.130;24.746;2023-07-29T01:24:42;99201.69;;;19.13;57.02
8320;BME280;4197;42.130;24.746;2023-07-29T01:27:10;99196.59;;;19.11;56.99
8320;BME280;4197;42.130;24.746;2023-07-29T01:29:38;99193.94;;;19.08;57.17
8320;BME280;4197;42.130;24.746;2023-07-29T01:32:10;99202.53;;;19.10;57.55
8320;BME280;4197;42.130;24.746;2023-07-29T01:34:42;99193.16;;;19.07;57.25
8320;BME280;4197;42.130;24.746;2023-07-29T01:37:19;99204.19;;;19.04;57.56
8320;BME280;4197;42.130;24.746;2023-07-29T01:39:55;99196.38;;;19.02;57.75
8320;BME280;4197;42.130;24.746;2023-07-29T01:42:24;99200.31;;;19.01;57.97
8320;BME280;4197;42.130;24.746;2023-07-29T01:44:56;99195.31;;;18.96;58.44
8320;BME280;4197;42.130;24.746;2023-07-29T01:47:24;99203.56;;;18.92;58.94
8320;BME280;4197;42.130;24.746;2023-07-29T01:49:53;99193.09;;;18.87;59.03
8320;BME280;4197;42.130;24.746;2023-07-29T01:52:21;99197.78;;;18.87;59.46
8320;BME280;4197;42.130;24.746;2023-07-29T01:54:49;99208.28;;;18.92;59.40
8320;BME280;4197;42.130;24.746;2023-07-29T01:57:19;99206.28;;;18.96;59.11
8320;BME280;4197;42.130;24.746;2023-07-29T01:59:47;99215.25;;;19.00;59.36
8320;BME280;4197;42.130;24.746;2023-07-29T02:02:15;99212.97;;;18.95;59.66
8320;BME280;4197;42.130;24.746;2023-07-29T02:04:44;99213.75;;;18.96;60.04
8320;BME280;4197;42.130;24.746;2023-07-29T02:07:18;99214.25;;;18.87;60.26
8320;BME280;4197;42.130;24.746;2023-07-29T02:09:47;99214.53;;;18.96;60.11
8320;BME280;4197;42.130;24.746;2023-07-29T02:12:15;99215.31;;;18.97;59.95
8320;BME280;4197;42.130;24.746;2023-07-29T02:14:44;99219.34;;;18.88;60.43
8320;BME280;4197;42.130;24.746;2023-07-29T02:17:12;99228.81;;;18.84;60.58
8320;BME280;4197;42.130;24.746;2023-07-29T02:19:43;99234.44;;;18.77;61.13
8320;BME280;4197;42.130;24.746;2023-07-29T02:22:13;99234.84;;;18.75;61.19
8320;BME280;4197;42.130;24.746;2023-07-29T02:24:42;99230.97;;;18.69;61.47
8320;BME280;4197;42.130;24.746;2023-07-29T02:27:10;99228.28;;;18.65;61.92
8320;BME280;4197;42.130;24.746;2023-07-29T02:29:39;99220.78;;;18.69;61.82
8320;BME280;4197;42.130;24.746;2023-07-29T02:32:09;99223.47;;;18.77;61.84
8320;BME280;4197;42.130;24.746;2023-07-29T02:34:39;99227.34;;;18.79;62.07
8320;BME280;4197;42.130;24.746;2023-07-29T02:37:07;99217.25;;;18.69;62.07
8320;BME280;4197;42.130;24.746;2023-07-29T02:39:35;99222.75;;;18.69;62.49
8320;BME280;4197;42.130;24.746;2023-07-29T02:42:04;99225.56;;;18.62;63.03
8320;BME280;4197;42.130;24.746;2023-07-29T02:44:32;99226.03;;;18.57;63.10
8320;BME280;4197;42.130;24.746;2023-07-29T02:47:03;99231.59;;;18.53;64.00
8320;BME280;4197;42.130;24.746;2023-07-29T02:49:33;99234.78;;;18.48;64.29
8320;BME280;4197;42.130;24.746;2023-07-29T02:52:03;99228.94;;;18.46;64.66
8320;BME280;4197;42.130;24.746;2023-07-29T02:54:32;99229.78;;;18.43;65.22
8320;BME280;4197;42.130;24.746;2023-07-29T02:57:01;99229.41;;;18.41;65.29
8320;BME280;4197;42.130;24.746;2023-07-29T02:59:31;99221.16;;;18.41;65.54
8320;BME280;4197;42.130;24.746;2023-07-29T03:01:59;99231.38;;;18.40;65.72
8320;BME280;4197;42.130;24.746;2023-07-29T03:04:28;99235.28;;;18.39;65.06
8320;BME280;4197;42.130;24.746;2023-07-29T03:07:01;99227.94;;;18.33;65.54
8320;BME280;4197;42.130;24.746;2023-07-29T03:09:29;99233.44;;;18.33;65.78
8320;BME280;4197;42.130;24.746;2023-07-29T03:11:57;99239.69;;;18.33;65.71
8320;BME280;4197;42.130;24.746;2023-07-29T03:14:26;99243.59;;;18.36;65.94
8320;BME280;4197;42.130;24.746;2023-07-29T03:16:54;99235.78;;;18.31;66.04
8320;BME280;4197;42.130;24.746;2023-07-29T03:19:22;99237.72;;;18.34;66.21
8320;BME280;4197;42.130;24.746;2023-07-29T03:21:50;99243.84;;;18.45;65.89
8320;BME280;4197;42.130;24.746;2023-07-29T03:24:20;99241.88;;;18.45;65.78
8320;BME280;4197;42.130;24.746;2023-07-29T03:26:48;99242.16;;;18.55;64.92
8320;BME280;4197;42.130;24.746;2023-07-29T03:29:16;99247.03;;;18.70;63.37
8320;BME280;4197;42.130;24.746;2023-07-29T03:31:45;99253.66;;;18.73;63.47
8320;BME280;4197;42.130;24.746;2023-07-29T03:34:13;99256.91;;;18.68;63.30
8320;BME280;4197;42.130;24.746;2023-07-29T03:36:41;99253.66;;;18.73;63.05
8320;BME280;4197;42.130;24.746;2023-07-29T03:39:09;99252.84;;;18.80;62.50
8320;BME280;4197;42.130;24.746;2023-07-29T03:41:39;99259.56;;;18.75;62.75
8320;BME280;4197;42.130;24.746;2023-07-29T03:44:07;99252.91;;;18.76;63.15
8320;BME280;4197;42.130;24.746;2023-07-29T03:46:35;99259.41;;;18.86;62.64
8320;BME280;4197;42.130;24.746;2023-07-29T03:49:04;99263.69;;;18.90;62.31
8320;BME280;4197;42.130;24.746;2023-07-29T03:51:32;99267.03;;;19.02;61.63
8320;BME280;4197;42.130;24.746;2023-07-29T03:54:02;99262.94;;;19.13;61.26
8320;BME280;4197;42.130;24.746;2023-07-29T03:56:31;99268.75;;;19.19;61.05
8320;BME280;4197;42.130;24.746;2023-07-29T03:59:04;99263.69;;;19.41;60.50
8320;BME280;4197;42.130;24.746;2023-07-29T04:01:32;99268.72;;;19.46;59.85
8320;BME280;4197;42.130;24.746;2023-07-29T04:04:00;99276.81;;;19.53;59.65
8320;BME280;4197;42.130;24.746;2023-07-29T04:06:29;99285.72;;;19.61;59.55
8320;BME280;4197;42.130;24.746;2023-07-29T04:08:57;99281.69;;;19.69;59.60
8320;BME280;4197;42.130;24.746;2023-07-29T04:11:25;99279.91;;;19.82;59.79
8320;BME280;4197;42.130;24.746;2023-07-29T04:13:53;99286.44;;;19.69;60.61
8320;BME280;4197;42.130;24.746;2023-07-29T04:16:23;99289.19;;;19.69;60.99
8320;BME280;4197;42.130;24.746;2023-07-29T04:18:51;99290.72;;;19.70;60.87
8320;BME280;4197;42.130;24.746;2023-07-29T04:21:19;99291.56;;;19.90;60.37
8320;BME280;4197;42.130;24.746;2023-07-29T04:23:48;99294.88;;;20.01;60.06
8320;BME280;4197;42.130;24.746;2023-07-29T04:26:16;99287.91;;;20.17;59.42
8320;BME280;4197;42.130;24.746;2023-07-29T04:28:44;99286.94;;;20.27;58.00
8320;BME280;4197;42.130;24.746;2023-07-29T04:31:12;99290.94;;;20.22;58.18
8320;BME280;4197;42.130;24.746;2023-07-29T04:33:42;99292.22;;;20.18;58.91
8320;BME280;4197;42.130;24.746;2023-07-29T04:36:10;99292.91;;;20.22;58.96
8320;BME280;4197;42.130;24.746;2023-07-29T04:38:38;99293.56;;;20.49;57.58
8320;BME280;4197;42.130;24.746;2023-07-29T04:41:07;99294.41;;;20.46;57.60
8320;BME280;4197;42.130;24.746;2023-07-29T04:43:35;99287.63;;;20.51;57.77
8320;BME280;4197;42.130;24.746;2023-07-29T04:46:06;99300.63;;;20.70;57.46
8320;BME280;4197;42.130;24.746;2023-07-29T04:48:35;99291.19;;;20.88;57.20
8320;BME280;4197;42.130;24.746;2023-07-29T04:51:05;99293.22;;;21.04;56.04
8320;BME280;4197;42.130;24.746;2023-07-29T04:53:33;99291.84;;;21.12;55.99
8320;BME280;4197;42.130;24.746;2023-07-29T04:56:02;99284.09;;;21.23;55.36
8320;BME280;4197;42.130;24.746;2023-07-29T04:58:30;99285.28;;;21.22;54.75
8320;BME280;4197;42.130;24.746;2023-07-29T05:01:01;99292.53;;;21.16;55.17
8320;BME280;4197;42.130;24.746;2023-07-29T05:03:30;99287.88;;;21.29;55.48
8320;BME280;4197;42.130;24.746;2023-07-29T05:05:59;99295.13;;;21.72;53.96
8320;BME280;4197;42.130;24.746;2023-07-29T05:08:28;99291.84;;;21.77;53.00
8320;BME280;4197;42.130;24.746;2023-07-29T05:10:57;99297.72;;;21.79;52.90
8320;BME280;4197;42.130;24.746;2023-07-29T05:13:25;99300.16;;;22.07;52.01
8320;BME280;4197;42.130;24.746;2023-07-29T05:15:54;99310.56;;;22.32;51.19
8320;BME280;4197;42.130;24.746;2023-07-29T05:18:23;99308.38;;;22.39;50.58
8320;BME280;4197;42.130;24.746;2023-07-29T05:20:51;99310.16;;;22.46;50.52
8320;BME280;4197;42.130;24.746;2023-07-29T05:23:19;99297.03;;;22.63;49.67
8320;BME280;4197;42.130;24.746;2023-07-29T05:25:48;99308.78;;;22.80;49.83
8320;BME280;4197;42.130;24.746;2023-07-29T05:28:17;99305.41;;;23.14;47.64
8320;BME280;4197;42.130;24.746;2023-07-29T05:30:45;99301.66;;;23.21;47.81
8320;BME280;4197;42.130;24.746;2023-07-29T05:33:13;99308.16;;;23.27;47.44
8320;BME280;4197;42.130;24.746;2023-07-29T05:35:40;99310.50;;;23.15;47.98
8320;BME280;4197;42.130;24.746;2023-07-29T05:38:08;99316.69;;;23.32;46.99
8320;BME280;4197;42.130;24.746;2023-07-29T05:40:36;99309.94;;;23.33;46.95
8320;BME280;4197;42.130;24.746;2023-07-29T05:43:06;99318.56;;;23.48;46.13
8320;BME280;4197;42.130;24.746;2023-07-29T05:45:34;99327.75;;;23.32;47.67
8320;BME280;4197;42.130;24.746;2023-07-29T05:48:03;99330.38;;;23.62;46.49
8320;BME280;4197;42.130;24.746;2023-07-29T05:50:31;99322.63;;;23.56;46.84
8320;BME280;4197;42.130;24.746;2023-07-29T05:52:59;99321.53;;;23.67;46.96
8320;BME280;4197;42.130;24.746;2023-07-29T05:55:28;99320.94;;;23.85;46.26
8320;BME280;4197;42.130;24.746;2023-07-29T05:57:56;99329.00;;;23.92;46.23
8320;BME280;4197;42.130;24.746;2023-07-29T06:00:26;99320.00;;;24.00;45.46
8320;BME280;4197;42.130;24.746;2023-07-29T06:02:54;99313.06;;;24.18;45.37
8320;BME280;4197;42.130;24.746;2023-07-29T06:05:23;99318.84;;;24.11;45.66
8320;BME280;4197;42.130;24.746;2023-07-29T06:07:51;99314.88;;;24.34;45.07
8320;BME280;4197;42.130;24.746;2023-07-29T06:10:19;99316.28;;;24.38;44.38
8320;BME280;4197;42.130;24.746;2023-07-29T06:12:49;99314.88;;;24.34;44.39
8320;BME280;4197;42.130;24.746;2023-07-29T06:15:17;99312.56;;;24.32;44.15
8320;BME280;4197;42.130;24.746;2023-07-29T06:17:50;99316.28;;;24.16;44.79
8320;BME280;4197;42.130;24.746;2023-07-29T06:20:22;99316.03;;;24.23;45.28
8320;BME280;4197;42.130;24.746;2023-07-29T06:22:50;99326.06;;;24.30;44.98
8320;BME280;4197;42.130;24.746;2023-07-29T06:25:19;99322.44;;;24.33;44.39
8320;BME280;4197;42.130;24.746;2023-07-29T06:27:47;99323.63;;;24.45;44.31
8320;BME280;4197;42.130;24.746;2023-07-29T06:30:16;99319.84;;;24.17;44.65
8320;BME280;4197;42.130;24.746;2023-07-29T06:32:44;99319.09;;;24.03;44.60
8320;BME280;4197;42.130;24.746;2023-07-29T06:35:14;99317.41;;;23.84;46.02
8320;BME280;4197;42.130;24.746;2023-07-29T06:37:42;99306.66;;;23.86;45.96
8320;BME280;4197;42.130;24.746;2023-07-29T06:40:11;99313.09;;;24.05;45.08
8320;BME280;4197;42.130;24.746;2023-07-29T06:42:39;99311.16;;;23.93;45.97
8320;BME280;4197;42.130;24.746;2023-07-29T06:45:08;99305.50;;;23.96;45.61
8320;BME280;4197;42.130;24.746;2023-07-29T06:47:37;99306.94;;;24.23;44.56
8320;BME280;4197;42.130;24.746;2023-07-29T06:50:05;99308.19;;;24.44;42.90
8320;BME280;4197;42.130;24.746;2023-07-29T06:52:35;99314.59;;;24.54;42.74
8320;BME280;4197;42.130;24.746;2023-07-29T06:55:05;99310.69;;;24.73;41.64
8320;BME280;4197;42.130;24.746;2023-07-29T06:57:34;99313.19;;;24.80;41.93
8320;BME280;4197;42.130;24.746;2023-07-29T07:00:03;99315.94;;;24.80;41.35
8320;BME280;4197;42.130;24.746;2023-07-29T07:02:31;99311.81;;;24.85;41.82
8320;BME280;4197;42.130;24.746;2023-07-29T07:04:59;99305.25;;;24.91;41.92
8320;BME280;4197;42.130;24.746;2023-07-29T07:07:28;99309.00;;;25.07;41.10
8320;BME280;4197;42.130;24.746;2023-07-29T07:09:57;99305.91;;;25.05;41.30
8320;BME280;4197;42.130;24.746;2023-07-29T07:12:27;99302.00;;;24.93;41.42
8320;BME280;4197;42.130;24.746;2023-07-29T07:14:55;99298.50;;;25.02;41.18
8320;BME280;4197;42.130;24.746;2023-07-29T07:17:23;99290.81;;;25.06;41.20
8320;BME280;4197;42.130;24.746;2023-07-29T07:19:52;99287.66;;;25.17;40.78
8320;BME280;4197;42.130;24.746;2023-07-29T07:22:20;99294.75;;;25.27;40.63
8320;BME280;4197;42.130;24.746;2023-07-29T07:24:48;99285.81;;;25.23;40.41
8320;BME280;4197;42.130;24.746;2023-07-29T07:27:18;99280.75;;;25.30;40.58
8320;BME280;4197;42.130;24.746;2023-07-29T07:29:46;99285.72;;;25.45;40.27
8320;BME280;4197;42.130;24.746;2023-07-29T07:32:14;99281.84;;;25.42;40.73
8320;BME280;4197;42.130;24.746;2023-07-29T07:34:42;99275.53;;;25.51;40.12
8320;BME280;4197;42.130;24.746;2023-07-29T07:37:10;99269.38;;;25.56;39.94
8320;BME280;4197;42.130;24.746;2023-07-29T07:39:39;99269.88;;;25.64;39.87
8320;BME280;4197;42.130;24.746;2023-07-29T07:42:07;99269.22;;;25.69;39.51
8320;BME280;4197;42.130;24.746;2023-07-29T07:44:36;99264.78;;;25.80;39.43
8320;BME280;4197;42.130;24.746;2023-07-29T07:47:05;99262.63;;;25.85;39.51
8320;BME280;4197;42.130;24.746;2023-07-29T07:49:33;99264.47;;;25.88;39.92
8320;BME280;4197;42.130;24.746;2023-07-29T07:52:01;99260.63;;;25.85;39.82
8320;BME280;4197;42.130;24.746;2023-07-29T07:54:30;99257.84;;;25.85;40.11
8320;BME280;4197;42.130;24.746;2023-07-29T07:56:59;99262.03;;;25.90;41.07
8320;BME280;4197;42.130;24.746;2023-07-29T07:59:27;99259.19;;;26.26;40.43
8320;BME280;4197;42.130;24.746;2023-07-29T08:01:57;99251.94;;;26.29;39.84
8320;BME280;4197;42.130;24.746;2023-07-29T08:04:25;99245.72;;;26.43;39.05
8320;BME280;4197;42.130;24.746;2023-07-29T08:06:53;99229.47;;;26.69;38.54
8320;BME280;4197;42.130;24.746;2023-07-29T08:09:21;99232.03;;;26.82;37.86
8320;BME280;4197;42.130;24.746;2023-07-29T08:11:49;99236.66;;;26.85;38.14
8320;BME280;4197;42.130;24.746;2023-07-29T08:14:18;99234.31;;;26.93;38.25
8320;BME280;4197;42.130;24.746;2023-07-29T08:16:46;99237.69;;;26.97;38.90
8320;BME280;4197;42.130;24.746;2023-07-29T08:19:15;99236.69;;;27.09;38.22
8320;BME280;4197;42.130;24.746;2023-07-29T08:21:46;99232.00;;;27.15;37.73
8320;BME280;4197;42.130;24.746;2023-07-29T08:24:14;99227.56;;;27.09;38.63
8320;BME280;4197;42.130;24.746;2023-07-29T08:26:43;99234.66;;;27.19;37.88
8320;BME280;4197;42.130;24.746;2023-07-29T08:29:11;99227.91;;;27.35;38.32
8320;BME280;4197;42.130;24.746;2023-07-29T08:31:39;99225.00;;;27.53;38.03
8320;BME280;4197;42.130;24.746;2023-07-29T08:34:08;99226.31;;;27.43;37.97
8320;BME280;4197;42.130;24.746;2023-07-29T08:36:37;99215.75;;;27.47;37.94
8320;BME280;4197;42.130;24.746;2023-07-29T08:39:05;99214.56;;;27.63;37.19
8320;BME280;4197;42.130;24.746;2023-07-29T08:41:40;99209.75;;;27.64;37.24
8320;BME280;4197;42.130;24.746;2023-07-29T08:44:11;99211.50;;;27.76;36.95
8320;BME280;4197;42.130;24.746;2023-07-29T08:46:40;99204.97;;;27.79;36.55
8320;BME280;4197;42.130;24.746;2023-07-29T08:49:08;99204.53;;;27.95;36.71
8320;BME280;4197;42.130;24.746;2023-07-29T08:51:44;99204.44;;;28.05;36.45
8320;BME280;4197;42.130;24.746;2023-07-29T08:54:13;99200.72;;;28.08;36.20
8320;BME280;4197;42.130;24.746;2023-07-29T08:56:42;99195.25;;;28.13;35.95
8320;BME280;4197;42.130;24.746;2023-07-29T08:59:10;99196.09;;;28.34;35.55
8320;BME280;4197;42.130;24.746;2023-07-29T09:01:39;99193.88;;;28.38;35.23
8320;BME280;4197;42.130;24.746;2023-07-29T09:04:07;99201.00;;;28.54;35.11
8320;BME280;4197;42.130;24.746;2023-07-29T09:06:36;99199.47;;;28.53;35.42
8320;BME280;4197;42.130;24.746;2023-07-29T09:09:08;99197.22;;;28.72;34.09
8320;BME280;4197;42.130;24.746;2023-07-29T09:11:36;99186.53;;;28.85;33.64
8320;BME280;4197;42.130;24.746;2023-07-29T09:14:05;99195.78;;;28.62;33.74
8320;BME280;4197;42.130;24.746;2023-07-29T09:16:33;99189.38;;;28.56;33.43
8320;BME280;4197;42.130;24.746;2023-07-29T09:19:03;99192.06;;;28.50;33.72
8320;BME280;4197;42.130;24.746;2023-07-29T09:21:32;99183.59;;;28.59;33.31
8320;BME280;4197;42.130;24.746;2023-07-29T09:24:03;99175.75;;;28.78;32.59
8320;BME280;4197;42.130;24.746;2023-07-29T09:26:33;99175.34;;;28.85;32.79
8320;BME280;4197;42.130;24.746;2023-07-29T09:29:02;99161.03;;;28.98;33.09
8320;BME280;4197;42.130;24.746;2023-07-29T09:31:30;99166.03;;;29.09;32.59
8320;BME280;4197;42.130;24.746;2023-07-29T09:34:00;99156.81;;;29.23;32.00
8320;BME280;4197;42.130;24.746;2023-07-29T09:36:31;99156.06;;;29.23;32.04
8320;BME280;4197;42.130;24.746;2023-07-29T09:39:00;99147.28;;;29.30;32.34
8320;BME280;4197;42.130;24.746;2023-07-29T09:41:30;99146.50;;;29.29;31.48
8320;BME280;4197;42.130;24.746;2023-07-29T09:44:01;99139.22;;;29.38;31.27
8320;BME280;4197;42.130;24.746;2023-07-29T09:46:33;99151.13;;;29.32;30.73
8320;BME280;4197;42.130;24.746;2023-07-29T09:49:03;99140.19;;;29.34;29.86
8320;BME280;4197;42.130;24.746;2023-07-29T09:51:31;99131.94;;;29.46;29.87
8320;BME280;4197;42.130;24.746;2023-07-29T09:54:05;99132.72;;;29.46;30.54
8320;BME280;4197;42.130;24.746;2023-07-29T09:56:33;99145.31;;;29.62;28.97
8320;BME280;4197;42.130;24.746;2023-07-29T09:59:08;99139.97;;;29.58;28.31
8320;BME280;4197;42.130;24.746;2023-07-29T10:01:39;99139.72;;;29.62;28.78
8320;BME280;4197;42.130;24.746;2023-07-29T10:04:08;99138.03;;;29.91;29.05
8320;BME280;4197;42.130;24.746;2023-07-29T10:06:39;99132.63;;;30.13;27.86
8320;BME280;4197;42.130;24.746;2023-07-29T10:09:10;99126.88;;;30.22;28.13
8320;BME280;4197;42.130;24.746;2023-07-29T10:11:39;99131.47;;;30.26;28.19
8320;BME280;4197;42.130;24.746;2023-07-29T10:14:09;99129.06;;;30.44;28.23
8320;BME280;4197;42.130;24.746;2023-07-29T10:16:40;99120.47;;;30.54;27.66
8320;BME280;4197;42.130;24.746;2023-07-29T10:19:09;99132.44;;;30.54;27.49
8320;BME280;4197;42.130;24.746;2023-07-29T10:21:40;99119.91;;;30.44;27.08
8320;BME280;4197;42.130;24.746;2023-07-29T10:24:15;99121.03;;;30.26;27.83
8320;BME280;4197;42.130;24.746;2023-07-29T10:26:48;99122.44;;;30.42;27.98
8320;BME280;4197;42.130;24.746;2023-07-29T10:29:19;99117.69;;;30.59;27.56
8320;BME280;4197;42.130;24.746;2023-07-29T10:31:48;99129.47;;;30.69;27.19
8320;BME280;4197;42.130;24.746;2023-07-29T10:34:20;99125.63;;;30.66;27.25
8320;BME280;4197;42.130;24.746;2023-07-29T10:36:50;99118.22;;;30.58;27.48
8320;BME280;4197;42.130;24.746;2023-07-29T10:39:19;99117.25;;;30.66;27.33
8320;BME280;4197;42.130;24.746;2023-07-29T10:41:57;99109.56;;;30.61;27.38
8320;BME280;4197;42.130;24.746;2023-07-29T10:44:49;99102.31;;;30.81;27.36
8320;BME280;4197;42.130;24.746;2023-07-29T10:47:20;99093.19;;;30.86;26.99
8320;BME280;4197;42.130;24.746;2023-07-29T10:49:51;99095.53;;;30.99;27.06
8320;BME280;4197;42.130;24.746;2023-07-29T10:52:37;99095.34;;;31.14;26.79
8320;BME280;4197;42.130;24.746;2023-07-29T10:55:24;99090.34;;;31.40;27.02
8320;BME280;4197;42.130;24.746;2023-07-29T10:58:08;99090.53;;;31.31;26.96
8320;BME280;4197;42.130;24.746;2023-07-29T11:00:41;99079.38;;;31.42;27.23
8320;BME280;4197;42.130;24.746;2023-07-29T11:03:11;99080.19;;;31.54;26.83
8320;BME280;4197;42.130;24.746;2023-07-29T11:05:46;99076.59;;;31.65;26.89
8320;BME280;4197;42.130;24.746;2023-07-29T11:08:19;99082.50;;;31.84;26.26
8320;BME280;4197;42.130;24.746;2023-07-29T11:11:08;99069.75;;;31.66;25.65
8320;BME280;4197;42.130;24.746;2023-07-29T11:13:39;99073.81;;;31.65;26.76
8320;BME280;4197;42.130;24.746;2023-07-29T11:16:10;99062.88;;;31.84;26.14
8320;BME280;4197;42.130;24.746;2023-07-29T11:18:38;99058.00;;;31.90;26.12
8320;BME280;4197;42.130;24.746;2023-07-29T11:21:08;99067.22;;;32.02;26.43
8320;BME280;4197;42.130;24.746;2023-07-29T11:23:37;99061.59;;;32.18;25.88
8320;BME280;4197;42.130;24.746;2023-07-29T11:26:05;99052.16;;;32.21;25.35
8320;BME280;4197;42.130;24.746;2023-07-29T11:28:38;99061.31;;;32.28;25.78
8320;BME280;4197;42.130;24.746;2023-07-29T11:31:07;99051.38;;;32.32;25.22
8320;BME280;4197;42.130;24.746;2023-07-29T11:33:38;99049.59;;;32.35;25.69
8320;BME280;4197;42.130;24.746;2023-07-29T11:36:17;99050.06;;;32.39;25.30
8320;BME280;4197;42.130;24.746;2023-07-29T11:38:46;99049.59;;;32.24;24.62
8320;BME280;4197;42.130;24.746;2023-07-29T11:41:19;99049.88;;;31.97;24.77
8320;BME280;4197;42.130;24.746;2023-07-29T11:43:48;99050.13;;;32.05;26.50
8320;BME280;4197;42.130;24.746;2023-07-29T11:46:21;99040.97;;;32.10;25.72
8320;BME280;4197;42.130;24.746;2023-07-29T11:48:53;99036.63;;;32.15;25.84
8320;BME280;4197;42.130;24.746;2023-07-29T11:51:22;99034.03;;;32.28;26.24
8320;BME280;4197;42.130;24.746;2023-07-29T11:53:51;99029.16;;;32.40;26.18
8320;BME280;4197;42.130;24.746;2023-07-29T11:56:19;99020.47;;;32.55;25.71
8320;BME280;4197;42.130;24.746;2023-07-29T11:58:48;99016.88;;;32.60;25.76
8320;BME280;4197;42.130;24.746;2023-07-29T12:01:17;99016.84;;;32.65;25.57
8320;BME280;4197;42.130;24.746;2023-07-29T12:03:45;99021.63;;;32.82;25.88
8320;BME280;4197;42.130;24.746;2023-07-29T12:06:15;99012.88;;;32.97;25.72
8320;BME280;4197;42.130;24.746;2023-07-29T12:08:44;99005.19;;;33.03;24.56
8320;BME280;4197;42.130;24.746;2023-07-29T12:11:12;99009.81;;;32.95;24.98
8320;BME280;4197;42.130;24.746;2023-07-29T12:13:42;99013.63;;;32.97;24.04
8320;BME280;4197;42.130;24.746;2023-07-29T12:16:16;99007.78;;;32.89;24.81
8320;BME280;4197;42.130;24.746;2023-07-29T12:18:44;99005.97;;;32.92;24.59
8320;BME280;4197;42.130;24.746;2023-07-29T12:21:15;99000.63;;;33.00;25.26
8320;BME280;4197;42.130;24.746;2023-07-29T12:23:43;99006.75;;;32.98;24.15
8320;BME280;4197;42.130;24.746;2023-07-29T12:26:11;98991.41;;;33.05;24.49
8320;BME280;4197;42.130;24.746;2023-07-29T12:28:45;98987.88;;;32.93;23.84
8320;BME280;4197;42.130;24.746;2023-07-29T12:31:14;98990.53;;;32.74;24.18
8320;BME280;4197;42.130;24.746;2023-07-29T12:33:42;98990.91;;;32.48;23.67
8320;BME280;4197;42.130;24.746;2023-07-29T12:36:10;98981.69;;;32.48;23.70
8320;BME280;4197;42.130;24.746;2023-07-29T12:38:42;98981.66;;;32.53;24.06
8320;BME280;4197;42.130;24.746;2023-07-29T12:41:11;98974.25;;;32.56;24.10
8320;BME280;4197;42.130;24.746;2023-07-29T12:43:39;98973.13;;;32.81;24.55
8320;BME280;4197;42.130;24.746;2023-07-29T12:46:07;98969.41;;;33.09;24.26
8320;BME280;4197;42.130;24.746;2023-07-29T12:48:35;98961.84;;;33.28;23.56
8320;BME280;4197;42.130;24.746;2023-07-29T12:51:03;98965.41;;;33.35;23.39
8320;BME280;4197;42.130;24.746;2023-07-29T12:53:32;98972.19;;;33.45;22.99
8320;BME280;4197;42.130;24.746;2023-07-29T12:56:03;98969.16;;;33.43;23.05
8320;BME280;4197;42.130;24.746;2023-07-29T12:58:31;98973.72;;;33.16;22.43
8320;BME280;4197;42.130;24.746;2023-07-29T13:00:59;98967.41;;;33.04;22.68
8320;BME280;4197;42.130;24.746;2023-07-29T13:03:28;98966.16;;;32.94;23.21
8320;BME280;4197;42.130;24.746;2023-07-29T13:05:56;98981.25;;;32.91;22.69
8320;BME280;4197;42.130;24.746;2023-07-29T13:08:24;98971.88;;;32.77;23.05
8320;BME280;4197;42.130;24.746;2023-07-29T13:10:52;98976.13;;;32.89;22.01
8320;BME280;4197;42.130;24.746;2023-07-29T13:13:22;98981.84;;;32.72;22.13
8320;BME280;4197;42.130;24.746;2023-07-29T13:15:50;98980.97;;;32.94;22.17
8320;BME280;4197;42.130;24.746;2023-07-29T13:18:20;98972.28;;;33.33;22.09
8320;BME280;4197;42.130;24.746;2023-07-29T13:20:48;98968.25;;;33.65;21.75
8320;BME280;4197;42.130;24.746;2023-07-29T13:23:17;98971.47;;;33.99;21.59